createdAt,value
2018-02-24T00:00:59.238Z,-2.80
2018-02-24T00:03:25.798Z,-2.70
2018-02-24T00:05:52.693Z,-2.70
2018-02-24T00:08:19.261Z,-2.80
2018-02-24T00:10:45.837Z,-2.70
2018-02-24T00:13:12.737Z,-2.80
2018-02-24T00:15:39.297Z,-2.80
2018-02-24T00:18:05.858Z,-2.80
2018-02-24T00:20:32.405Z,-2.80
2018-02-24T00:22:58.975Z,-2.80
2018-02-24T00:25:25.529Z,-2.80
2018-02-24T00:27:52.057Z,-2.80
2018-02-24T00:30:18.619Z,-2.80
2018-02-24T00:32:45.558Z,-2.80
2018-02-24T00:35:12.086Z,-2.80
2018-02-24T00:37:38.650Z,-2.80
2018-02-24T00:40:05.209Z,-2.80
2018-02-24T00:42:31.736Z,-2.80
2018-02-24T00:44:58.298Z,-2.80
2018-02-24T00:47:24.858Z,-2.80
2018-02-24T00:49:51.438Z,-2.80
2018-02-24T00:52:18.006Z,-2.80
2018-02-24T00:54:44.581Z,-2.90
2018-02-24T00:57:11.221Z,-2.90
2018-02-24T00:59:37.785Z,-2.90
2018-02-24T01:02:04.393Z,-2.90
2018-02-24T01:04:30.973Z,-2.90
2018-02-24T01:06:57.546Z,-2.90
2018-02-24T01:09:24.473Z,-2.90
2018-02-24T01:11:51.013Z,-2.90
2018-02-24T01:14:17.574Z,-3.00
2018-02-24T01:16:44.149Z,-3.00
2018-02-24T01:19:11.081Z,-2.90
2018-02-24T01:21:37.642Z,-3.00
2018-02-24T01:24:04.214Z,-3.00
2018-02-24T01:26:30.737Z,-3.00
2018-02-24T01:28:57.344Z,-3.00
2018-02-24T01:31:23.909Z,-3.00
2018-02-24T01:33:50.441Z,-3.00
2018-02-24T01:36:17.013Z,-3.00
2018-02-24T01:38:43.577Z,-3.00
2018-02-24T01:41:10.106Z,-3.10
2018-02-24T01:43:36.674Z,-3.10
2018-02-24T01:46:03.243Z,-3.10
2018-02-24T01:48:29.801Z,-3.10
2018-02-24T01:50:56.367Z,-3.10
2018-02-24T01:53:22.929Z,-3.20
2018-02-24T01:55:49.462Z,-3.10
2018-02-24T01:58:16.049Z,-3.10
2018-02-24T02:00:42.949Z,-3.10
2018-02-24T02:03:09.481Z,-3.20
2018-02-24T02:05:36.065Z,-3.20
2018-02-24T02:08:02.669Z,-3.20
2018-02-24T02:10:29.213Z,-3.20
2018-02-24T02:12:56.153Z,-3.20
2018-02-24T02:15:22.709Z,-3.20
2018-02-24T02:17:49.609Z,-3.30
2018-02-24T02:20:16.209Z,-3.30
2018-02-24T02:22:43.132Z,-3.20
2018-02-24T02:25:09.662Z,-3.20
2018-02-24T02:27:36.225Z,-3.30
2018-02-24T02:30:02.863Z,-3.30
2018-02-24T02:32:29.398Z,-3.30
2018-02-24T02:34:55.954Z,-3.30
2018-02-24T02:37:22.510Z,-3.30
2018-02-24T02:39:49.042Z,-3.30
2018-02-24T02:42:15.602Z,-3.30
2018-02-24T02:44:42.171Z,-3.30
2018-02-24T02:47:08.701Z,-3.30
2018-02-24T02:49:35.263Z,-3.30
2018-02-24T02:52:01.841Z,-3.40
2018-02-24T02:54:28.741Z,-3.40
2018-02-24T02:56:55.311Z,-3.40
2018-02-24T02:59:21.910Z,-3.40
2018-02-24T03:01:48.461Z,-3.40
2018-02-24T03:04:15.018Z,-3.40
2018-02-24T03:06:41.581Z,-3.50
2018-02-24T03:09:08.157Z,-3.50
2018-02-24T03:11:34.721Z,-3.50
2018-02-24T03:14:01.654Z,-3.50
2018-02-24T03:16:28.191Z,-3.50
2018-02-24T03:18:54.761Z,-3.60
2018-02-24T03:21:21.317Z,-3.60
2018-02-24T03:23:48.216Z,-3.60
2018-02-24T03:26:14.769Z,-3.60
2018-02-24T03:28:41.334Z,-3.70
2018-02-24T03:31:07.883Z,-3.70
2018-02-24T03:33:34.449Z,-3.70
2018-02-24T03:36:01.014Z,-3.70
2018-02-24T03:38:27.917Z,-3.70
2018-02-24T03:40:54.481Z,-3.70
2018-02-24T03:43:21.041Z,-3.70
2018-02-24T03:45:51.501Z,-3.70
2018-02-24T03:48:18.432Z,-3.70
2018-02-24T03:50:45.038Z,-3.70
2018-02-24T03:53:11.617Z,-3.70
2018-02-24T03:55:38.216Z,-3.70
2018-02-24T03:58:05.177Z,-3.70
2018-02-24T04:00:32.065Z,-3.70
2018-02-24T04:02:58.625Z,-3.80
2018-02-24T04:05:25.637Z,-3.70
2018-02-24T04:07:52.530Z,-3.70
2018-02-24T04:10:19.098Z,-3.70
2018-02-24T04:12:45.657Z,-3.70
2018-02-24T04:15:12.226Z,-3.70
2018-02-24T04:17:39.153Z,-3.80
2018-02-24T04:20:05.734Z,-3.70
2018-02-24T04:22:32.629Z,-3.80
2018-02-24T04:24:59.205Z,-3.80
2018-02-24T04:27:25.762Z,-3.80
2018-02-24T04:29:52.285Z,-3.70
2018-02-24T04:32:18.853Z,-3.80
2018-02-24T04:34:45.422Z,-3.80
2018-02-24T04:37:12.316Z,-3.90
2018-02-24T04:39:38.866Z,-3.90
2018-02-24T04:42:05.455Z,-3.80
2018-02-24T04:44:32.031Z,-3.80
2018-02-24T04:46:58.942Z,-3.90
2018-02-24T04:49:25.497Z,-3.90
2018-02-24T04:51:52.046Z,-3.90
2018-02-24T04:54:18.617Z,-3.80
2018-02-24T04:56:45.541Z,-3.90
2018-02-24T04:59:12.190Z,-3.90
2018-02-24T05:01:38.759Z,-3.90
2018-02-24T05:04:05.690Z,-3.90
2018-02-24T05:06:32.217Z,-3.90
2018-02-24T05:08:58.789Z,-3.90
2018-02-24T05:11:25.345Z,-4.00
2018-02-24T05:13:51.869Z,-4.10
2018-02-24T05:16:18.429Z,-4.00
2018-02-24T05:18:44.990Z,-4.10
2018-02-24T05:21:11.514Z,-4.10
2018-02-24T05:23:38.087Z,-4.00
2018-02-24T05:26:04.646Z,-4.10
2018-02-24T05:28:31.555Z,-4.10
2018-02-24T05:30:58.125Z,-4.00
2018-02-24T05:33:25.080Z,-4.10
2018-02-24T05:35:51.602Z,-4.10
2018-02-24T05:38:18.159Z,-4.20
2018-02-24T05:40:44.718Z,-4.10
2018-02-24T05:43:11.249Z,-4.20
2018-02-24T05:45:37.808Z,-4.20
2018-02-24T05:48:04.364Z,-4.20
2018-02-24T05:50:30.885Z,-4.20
2018-02-24T05:52:57.717Z,-4.10
2018-02-24T05:55:24.302Z,-4.10
2018-02-24T05:57:50.876Z,-4.10
2018-02-24T06:00:17.513Z,-4.20
2018-02-24T06:02:44.081Z,-4.20
2018-02-24T06:05:10.992Z,-4.20
2018-02-24T06:07:37.552Z,-4.20
2018-02-24T06:10:04.116Z,-4.10
2018-02-24T06:12:30.649Z,-4.10
2018-02-24T06:14:57.242Z,-4.10
2018-02-24T06:17:23.833Z,-4.20
2018-02-24T06:19:50.373Z,-4.20
2018-02-24T06:22:17.013Z,-4.20
2018-02-24T06:24:43.585Z,-4.10
2018-02-24T06:27:10.166Z,-4.20
2018-02-24T06:29:37.157Z,-4.20
2018-02-24T06:32:03.790Z,-4.20
2018-02-24T06:34:30.365Z,-4.10
2018-02-24T06:36:56.926Z,-4.20
2018-02-24T06:39:23.538Z,-4.20
2018-02-24T06:41:50.099Z,-4.10
2018-02-24T06:44:16.674Z,-4.10
2018-02-24T06:46:43.279Z,-4.20
2018-02-24T06:49:09.811Z,-4.20
2018-02-24T06:51:36.742Z,-4.30
2018-02-24T06:54:03.305Z,-4.30
2018-02-24T06:56:30.209Z,-4.30
2018-02-24T06:58:56.797Z,-4.30
2018-02-24T07:01:23.364Z,-4.30
2018-02-24T07:03:50.275Z,-4.30
2018-02-24T07:06:16.838Z,-4.40
2018-02-24T07:08:43.402Z,-4.30
2018-02-24T07:11:10.303Z,-4.30
2018-02-24T07:13:36.871Z,-4.30
2018-02-24T07:16:03.434Z,-4.40
2018-02-24T07:18:29.968Z,-4.30
2018-02-24T07:20:56.538Z,-4.40
2018-02-24T07:23:23.101Z,-4.30
2018-02-24T07:25:50.002Z,-4.30
2018-02-24T07:28:16.626Z,-4.30
2018-02-24T07:30:43.212Z,-4.30
2018-02-24T07:33:09.745Z,-4.20
2018-02-24T07:35:36.682Z,-4.30
2018-02-24T07:38:03.270Z,-4.30
2018-02-24T07:40:29.846Z,-4.20
2018-02-24T07:42:56.394Z,-4.20
2018-02-24T07:45:23.338Z,-4.30
2018-02-24T07:47:49.864Z,-4.30
2018-02-24T07:50:16.429Z,-4.30
2018-02-24T07:52:43.014Z,-4.20
2018-02-24T07:55:09.549Z,-4.20
2018-02-24T07:57:36.476Z,-4.30
2018-02-24T08:00:03.101Z,-4.30
2018-02-24T08:02:29.726Z,-4.20
2018-02-24T08:04:56.289Z,-4.20
2018-02-24T08:07:22.861Z,-4.10
2018-02-24T08:09:49.402Z,-4.20
2018-02-24T08:12:15.971Z,-4.10
2018-02-24T08:14:42.538Z,-3.90
2018-02-24T08:17:09.442Z,-3.80
2018-02-24T08:19:36.029Z,-3.80
2018-02-24T08:22:02.965Z,-3.70
2018-02-24T08:24:29.518Z,-3.70
2018-02-24T08:26:56.130Z,-3.50
2018-02-24T08:29:22.840Z,-3.50
2018-02-24T08:31:49.762Z,-3.40
2018-02-24T08:34:16.338Z,-3.40
2018-02-24T08:36:43.278Z,-3.10
2018-02-24T08:39:09.809Z,-3.10
2018-02-24T08:41:36.422Z,-3.10
2018-02-24T08:44:02.984Z,-3.00
2018-02-24T08:46:29.510Z,-3.00
2018-02-24T08:48:56.078Z,-3.10
2018-02-24T08:51:22.652Z,-2.80
2018-02-24T08:53:49.221Z,-2.60
2018-02-24T08:56:16.150Z,-2.60
2018-02-24T08:58:42.750Z,-2.60
2018-02-24T09:01:09.314Z,-2.60
2018-02-24T09:03:35.942Z,-2.70
2018-02-24T09:06:02.889Z,-2.50
2018-02-24T09:08:29.785Z,-2.50
2018-02-24T09:10:56.350Z,-2.50
2018-02-24T09:13:22.926Z,-2.40
2018-02-24T09:15:49.838Z,-2.70
2018-02-24T09:18:16.394Z,-2.70
2018-02-24T09:20:42.958Z,-2.60
2018-02-24T09:23:09.489Z,-2.40
2018-02-24T09:25:36.056Z,-2.20
2018-02-24T09:28:02.654Z,-2.10
2018-02-24T09:30:29.189Z,-1.80
2018-02-24T09:32:56.118Z,-1.50
2018-02-24T09:35:22.677Z,-1.50
2018-02-24T09:37:49.587Z,-1.30
2018-02-24T09:40:16.141Z,-1.30
2018-02-24T09:42:42.718Z,-1.40
2018-02-24T09:45:09.277Z,-1.60
2018-02-24T09:47:35.850Z,-1.70
2018-02-24T09:50:02.432Z,-1.70
2018-02-24T09:52:28.961Z,-1.80
2018-02-24T09:54:55.513Z,-1.70
2018-02-24T09:57:22.086Z,-1.70
2018-02-24T09:59:48.704Z,-1.70
2018-02-24T10:02:15.277Z,-1.70
2018-02-24T10:04:41.845Z,-1.60
2018-02-24T10:07:08.749Z,-1.70
2018-02-24T10:09:35.306Z,-1.60
2018-02-24T10:12:01.861Z,-1.60
2018-02-24T10:14:28.389Z,-1.50
2018-02-24T10:16:54.936Z,-1.50
2018-02-24T10:19:21.497Z,-1.50
2018-02-24T10:21:48.114Z,-1.50
2018-02-24T10:24:14.675Z,-1.50
2018-02-24T10:26:41.247Z,-1.70
2018-02-24T10:29:14.892Z,-1.60
2018-02-24T10:31:41.830Z,-1.30
2018-02-24T10:34:08.370Z,-1.30
2018-02-24T10:36:34.938Z,-1.30
2018-02-24T10:39:01.510Z,-1.30
2018-02-24T10:41:28.415Z,-1.20
2018-02-24T10:43:54.982Z,-1.20
2018-02-24T10:46:21.549Z,-1.40
2018-02-24T10:48:48.554Z,-1.40
2018-02-24T10:51:15.166Z,-1.40
2018-02-24T10:53:42.101Z,-1.40
2018-02-24T10:56:08.931Z,-1.40
2018-02-24T10:58:35.520Z,-1.20
2018-02-24T11:01:02.654Z,-1.20
2018-02-24T11:03:29.191Z,-1.20
2018-02-24T11:05:55.831Z,-1.00
2018-02-24T11:08:22.580Z,-0.90
2018-02-24T11:10:49.492Z,-0.90
2018-02-24T11:13:16.102Z,-0.80
2018-02-24T11:15:42.736Z,-0.60
2018-02-24T11:18:09.345Z,-0.80
2018-02-24T11:20:36.024Z,-0.60
2018-02-24T11:23:02.670Z,-0.60
2018-02-24T11:25:29.337Z,-0.60
2018-02-24T11:27:55.987Z,-0.70
2018-02-24T11:30:22.603Z,-0.70
2018-02-24T11:32:49.133Z,-0.70
2018-02-24T11:35:15.696Z,-0.80
2018-02-24T11:37:42.294Z,-0.60
2018-02-24T11:40:08.842Z,-0.70
2018-02-24T11:42:35.462Z,-0.60
2018-02-24T11:45:02.026Z,-0.40
2018-02-24T11:47:28.584Z,-0.20
2018-02-24T11:49:55.146Z,-0.10
2018-02-24T11:52:22.104Z,-0.10
2018-02-24T11:54:49.007Z,0.10
2018-02-24T11:57:15.698Z,0.10
2018-02-24T11:59:42.313Z,-0.10
2018-02-24T12:02:08.851Z,-0.10
2018-02-24T12:04:35.419Z,-0.10
2018-02-24T12:07:01.990Z,0.00
2018-02-24T12:09:28.582Z,0.10
2018-02-24T12:11:55.197Z,0.10
2018-02-24T12:14:22.129Z,0.20
2018-02-24T12:16:48.653Z,0.20
2018-02-24T12:19:15.225Z,0.20
2018-02-24T12:21:42.202Z,0.60
2018-02-24T12:24:09.142Z,0.60
2018-02-24T12:26:35.719Z,0.50
2018-02-24T12:29:02.294Z,0.60
2018-02-24T12:31:28.857Z,0.50
2018-02-24T12:33:55.418Z,0.80
2018-02-24T12:36:21.990Z,1.10
2018-02-24T12:38:48.570Z,1.00
2018-02-24T12:41:15.150Z,1.00
2018-02-24T12:43:41.730Z,1.00
2018-02-24T12:46:08.638Z,1.10
2018-02-24T12:48:35.194Z,1.20
2018-02-24T12:51:01.764Z,0.90
2018-02-24T12:53:28.562Z,0.90
2018-02-24T12:55:55.519Z,0.80
2018-02-24T12:58:22.177Z,0.80
2018-02-24T13:00:55.892Z,0.90
2018-02-24T13:03:22.456Z,0.80
2018-02-24T13:05:49.007Z,0.70
2018-02-24T13:08:15.582Z,0.70
2018-02-24T13:10:42.152Z,0.80
2018-02-24T13:13:09.059Z,0.80
2018-02-24T13:15:35.626Z,0.80
2018-02-24T13:18:02.185Z,0.80
2018-02-24T13:20:28.714Z,0.90
2018-02-24T13:22:55.318Z,1.00
2018-02-24T13:25:21.948Z,0.90
2018-02-24T13:27:48.854Z,0.70
2018-02-24T13:30:15.414Z,0.70
2018-02-24T13:32:42.021Z,0.60
2018-02-24T13:35:08.557Z,0.70
2018-02-24T13:37:35.553Z,0.60
2018-02-24T13:40:02.137Z,0.60
2018-02-24T13:42:28.673Z,0.60
2018-02-24T13:44:55.235Z,0.60
2018-02-24T13:47:21.850Z,0.70
2018-02-24T13:49:48.386Z,0.80
2018-02-24T13:52:14.950Z,0.90
2018-02-24T13:54:41.514Z,1.00
2018-02-24T13:57:08.047Z,1.20
2018-02-24T13:59:34.673Z,1.10
2018-02-24T14:02:01.238Z,1.00
2018-02-24T14:04:27.774Z,0.90
2018-02-24T14:06:54.334Z,0.90
2018-02-24T14:09:20.897Z,0.70
2018-02-24T14:11:47.542Z,0.60
2018-02-24T14:14:14.097Z,0.60
2018-02-24T14:16:40.666Z,0.50
2018-02-24T14:19:07.577Z,0.10
2018-02-24T14:21:34.134Z,0.10
2018-02-24T14:24:07.654Z,0.20
2018-02-24T14:26:34.222Z,0.20
2018-02-24T14:29:01.154Z,0.20
2018-02-24T14:31:27.714Z,0.20
2018-02-24T14:33:54.289Z,0.20
2018-02-24T14:36:21.224Z,0.10
2018-02-24T14:38:47.750Z,0.10
2018-02-24T14:41:14.322Z,0.00
2018-02-24T14:43:41.252Z,0.00
2018-02-24T14:46:07.783Z,0.10
2018-02-24T14:48:34.610Z,0.10
2018-02-24T14:51:01.303Z,0.20
2018-02-24T14:53:27.850Z,0.30
2018-02-24T14:55:54.422Z,0.20
2018-02-24T14:58:21.004Z,0.10
2018-02-24T15:00:47.774Z,0.10
2018-02-24T15:03:14.350Z,0.10
2018-02-24T15:05:40.909Z,0.00
2018-02-24T15:08:07.458Z,0.10
2018-02-24T15:10:34.037Z,0.10
2018-02-24T15:13:00.649Z,0.10
2018-02-24T15:15:27.189Z,0.00
2018-02-24T15:17:53.793Z,0.10
2018-02-24T15:20:20.402Z,0.00
2018-02-24T15:22:46.950Z,0.00
2018-02-24T15:25:13.953Z,-0.10
2018-02-24T15:27:40.575Z,-0.10
2018-02-24T15:30:07.490Z,-0.10
2018-02-24T15:32:34.110Z,-0.10
2018-02-24T15:35:00.675Z,0.00
2018-02-24T15:37:27.253Z,-0.20
2018-02-24T15:39:53.849Z,-0.40
2018-02-24T15:42:20.430Z,-0.50
2018-02-24T15:44:46.978Z,-0.60
2018-02-24T15:47:13.562Z,-0.80
2018-02-24T15:49:41.362Z,-1.00
2018-02-24T15:52:08.811Z,-1.00
2018-02-24T15:54:35.778Z,-1.10
2018-02-24T15:57:02.355Z,-1.10
2018-02-24T15:59:28.906Z,-1.20
2018-02-24T16:01:55.533Z,-1.20
2018-02-24T16:04:22.097Z,-1.20
2018-02-24T16:06:48.637Z,-1.20
2018-02-24T16:09:15.339Z,-1.30
2018-02-24T16:11:42.146Z,-1.30
2018-02-24T16:14:08.703Z,-1.40
2018-02-24T16:16:35.322Z,-1.40
2018-02-24T16:19:01.938Z,-1.40
2018-02-24T16:21:28.850Z,-1.50
2018-02-24T16:23:55.417Z,-1.50
2018-02-24T16:26:22.034Z,-1.60
2018-02-24T16:28:48.562Z,-1.60
2018-02-24T16:31:15.143Z,-1.70
2018-02-24T16:33:41.721Z,-1.70
2018-02-24T16:36:08.275Z,-1.70
2018-02-24T16:38:34.841Z,-1.70
2018-02-24T16:41:01.786Z,-1.80
2018-02-24T16:43:28.688Z,-1.80
2018-02-24T16:45:55.265Z,-1.80
2018-02-24T16:48:21.830Z,-1.90
2018-02-24T16:50:48.362Z,-2.00
2018-02-24T16:53:15.042Z,-2.00
2018-02-24T16:55:41.990Z,-2.10
2018-02-24T16:58:08.918Z,-2.10
2018-02-24T17:00:35.518Z,-2.10
2018-02-24T17:03:02.087Z,-2.20
2018-02-24T17:05:35.530Z,-2.20
2018-02-24T17:08:02.142Z,-2.30
2018-02-24T17:10:28.661Z,-2.30
2018-02-24T17:12:55.585Z,-2.30
2018-02-24T17:15:22.150Z,-2.40
2018-02-24T17:17:49.055Z,-2.40
2018-02-24T17:20:15.616Z,-2.40
2018-02-24T17:22:42.230Z,-2.40
2018-02-24T17:25:08.870Z,-2.50
2018-02-24T17:27:35.462Z,-2.50
2018-02-24T17:30:02.025Z,-2.50
2018-02-24T17:32:28.588Z,-2.60
2018-02-24T17:34:55.526Z,-2.60
2018-02-24T17:37:22.141Z,-2.60
2018-02-24T17:39:48.673Z,-2.70
2018-02-24T17:42:15.285Z,-2.70
2018-02-24T17:44:48.862Z,-2.70
2018-02-24T17:47:15.433Z,-2.80
2018-02-24T17:49:41.998Z,-2.80
2018-02-24T17:52:08.893Z,-2.90
2018-02-24T17:54:35.467Z,-2.90
2018-02-24T17:57:02.032Z,-3.00
2018-02-24T17:59:28.570Z,-3.00
2018-02-24T18:01:55.162Z,-3.00
2018-02-24T18:04:21.789Z,-3.00
2018-02-24T18:06:48.698Z,-3.10
2018-02-24T18:09:15.260Z,-3.10
2018-02-24T18:11:41.818Z,-3.10
2018-02-24T18:14:08.351Z,-3.10
2018-02-24T18:16:34.906Z,-3.20
2018-02-24T18:19:01.478Z,-3.30
2018-02-24T18:21:28.009Z,-3.30
2018-02-24T18:23:54.583Z,-3.40
2018-02-24T18:26:21.518Z,-3.40
2018-02-24T18:28:48.054Z,-3.40
2018-02-24T18:31:14.622Z,-3.40
2018-02-24T18:33:41.221Z,-3.40
2018-02-24T18:36:07.749Z,-3.50
2018-02-24T18:38:34.370Z,-3.60
2018-02-24T18:41:01.306Z,-3.60
2018-02-24T18:43:27.881Z,-3.60
2018-02-24T18:45:54.861Z,-3.60
2018-02-24T18:48:21.481Z,-3.60
2018-02-24T18:50:48.054Z,-3.60
2018-02-24T18:53:14.633Z,-3.70
2018-02-24T18:55:41.286Z,-3.70
2018-02-24T18:58:07.850Z,-3.80
2018-02-24T19:00:34.422Z,-3.80
2018-02-24T19:03:01.035Z,-3.80
2018-02-24T19:05:27.577Z,-3.90
2018-02-24T19:07:54.203Z,-3.90
2018-02-24T19:10:20.797Z,-3.90
2018-02-24T19:12:47.338Z,-3.90
2018-02-24T19:15:13.905Z,-4.00
2018-02-24T19:17:40.532Z,-4.00
2018-02-24T19:20:07.242Z,-4.00
2018-02-24T19:22:33.836Z,-4.00
2018-02-24T19:25:01.878Z,-4.10
2018-02-24T19:27:28.418Z,-4.00
2018-02-24T19:29:55.423Z,-4.10
2018-02-24T19:32:22.058Z,-4.10
2018-02-24T19:34:48.716Z,-4.10
2018-02-24T19:37:15.414Z,-4.20
2018-02-24T19:39:42.854Z,-4.20
2018-02-24T19:42:09.538Z,-4.20
2018-02-24T19:44:36.496Z,-4.20
2018-02-24T19:47:03.062Z,-4.20
2018-02-24T19:49:29.670Z,-4.20
2018-02-24T19:51:56.631Z,-4.30
2018-02-24T19:54:23.566Z,-4.30
2018-02-24T19:56:50.092Z,-4.30
2018-02-24T19:59:16.922Z,-4.30
2018-02-24T20:01:43.527Z,-4.40
2018-02-24T20:04:10.479Z,-4.40
2018-02-24T20:06:38.326Z,-4.40
2018-02-24T20:09:04.942Z,-4.40
2018-02-24T20:11:31.537Z,-4.50
2018-02-24T20:13:58.114Z,-4.50
2018-02-24T20:16:25.658Z,-4.50
2018-02-24T20:18:52.234Z,-4.50
2018-02-24T20:21:18.886Z,-4.60
2018-02-24T20:23:45.898Z,-4.60
2018-02-24T20:26:12.729Z,-4.60
2018-02-24T20:28:39.297Z,-4.60
2018-02-24T20:31:05.877Z,-4.70
2018-02-24T20:33:32.790Z,-4.70
2018-02-24T20:36:00.407Z,-4.70
2018-02-24T20:38:27.356Z,-4.70
2018-02-24T20:40:54.267Z,-4.80
2018-02-24T20:43:20.920Z,-4.80
2018-02-24T20:45:47.526Z,-4.80
2018-02-24T20:48:14.450Z,-4.80
2018-02-24T20:50:41.398Z,-4.80
2018-02-24T20:53:08.093Z,-4.80
2018-02-24T20:55:36.031Z,-4.90
2018-02-24T20:58:04.495Z,-4.90
2018-02-24T21:00:31.027Z,-4.90
2018-02-24T21:02:57.641Z,-4.90
2018-02-24T21:05:24.620Z,-4.90
2018-02-24T21:07:51.194Z,-5.00
2018-02-24T21:10:18.583Z,-4.90
2018-02-24T21:12:45.146Z,-5.00
2018-02-24T21:15:11.718Z,-5.00
2018-02-24T21:17:38.621Z,-5.00
2018-02-24T21:20:05.249Z,-5.00
2018-02-24T21:22:32.658Z,-5.00
2018-02-24T21:24:59.254Z,-5.00
2018-02-24T21:27:25.849Z,-5.00
2018-02-24T21:29:52.798Z,-5.00
2018-02-24T21:32:19.609Z,-5.00
2018-02-24T21:34:46.301Z,-5.10
2018-02-24T21:37:12.869Z,-5.10
2018-02-24T21:39:39.449Z,-5.20
2018-02-24T21:42:06.013Z,-5.20
2018-02-24T21:44:32.580Z,-5.20
2018-02-24T21:46:59.110Z,-5.20
2018-02-24T21:49:25.677Z,-5.30
2018-02-24T21:51:52.278Z,-5.30
2018-02-24T21:54:18.819Z,-5.40
2018-02-24T21:56:45.541Z,-5.40
2018-02-24T21:59:12.471Z,-5.40
2018-02-24T22:01:39.021Z,-5.50
2018-02-24T22:04:05.659Z,-5.50
2018-02-24T22:06:32.317Z,-5.50
2018-02-24T22:08:58.866Z,-5.60
2018-02-24T22:11:25.550Z,-5.70
2018-02-24T22:13:52.202Z,-5.70
2018-02-24T22:16:18.741Z,-5.70
2018-02-24T22:18:45.680Z,-5.90
2018-02-24T22:21:12.259Z,-5.90
2018-02-24T22:23:38.811Z,-6.00
2018-02-24T22:26:05.434Z,-6.00
2018-02-24T22:28:32.168Z,-6.10
2018-02-24T22:30:58.794Z,-6.20
2018-02-24T22:33:25.361Z,-6.20
2018-02-24T22:35:51.937Z,-6.30
2018-02-24T22:38:18.853Z,-6.30
2018-02-24T22:40:45.413Z,-6.30
2018-02-24T22:43:12.010Z,-6.30
2018-02-24T22:45:38.533Z,-6.40
2018-02-24T22:48:11.619Z,-6.50
2018-02-24T22:50:38.185Z,-6.50
2018-02-24T22:53:05.081Z,-6.60
2018-02-24T22:55:31.646Z,-6.60
2018-02-24T22:57:58.206Z,-6.60
2018-02-24T23:00:28.901Z,-6.70
2018-02-24T23:02:55.545Z,-6.70
2018-02-24T23:05:22.174Z,-6.80
2018-02-24T23:07:49.074Z,-6.80
2018-02-24T23:10:15.649Z,-6.80
2018-02-24T23:12:42.622Z,-6.90
2018-02-24T23:15:09.158Z,-6.90
2018-02-24T23:17:35.734Z,-6.90
2018-02-24T23:20:02.729Z,-7.00
2018-02-24T23:22:29.258Z,-7.00
2018-02-24T23:24:55.823Z,-7.00
2018-02-24T23:27:22.389Z,-7.10
2018-02-24T23:29:48.921Z,-7.10
2018-02-24T23:32:15.477Z,-7.10
2018-02-24T23:34:42.116Z,-7.00
2018-02-24T23:37:08.666Z,-7.10
2018-02-24T23:39:35.274Z,-7.10
2018-02-24T23:42:02.246Z,-7.20
2018-02-24T23:44:28.822Z,-7.20
2018-02-24T23:46:55.379Z,-7.20
2018-02-24T23:49:21.961Z,-7.20
2018-02-24T23:51:48.867Z,-7.30
2018-02-24T23:54:15.438Z,-7.30
2018-02-24T23:56:42.006Z,-7.30
2018-02-24T23:59:08.906Z,-7.30
